Time;durP1;ratioP1;P1;durP2;ratioP2;P2;SDS_P1;SDS_P2;PMS_P1;PMS_P2;Temp;Humidity;BMP_temperature;BMP_pressure;BME280_temperature;BME280_humidity;BME280_pressure;Samples;Min_cycle;Max_cycle;Signal;HPM_P1;HPM_P2
2023/11/14 00:02:13;;;;;;;17.52;3.67;;;;;;;11.24;100.00;98986.16;5208642;28;20243;-72
2023/11/14 00:04:43;;;;;;;13.70;2.10;;;;;;;11.27;100.00;98979.91;5208554;28;20560;-72
2023/11/14 00:07:13;;;;;;;21.02;3.50;;;;;;;11.27;100.00;98979.91;5209255;28;20057;-72
2023/11/14 00:09:43;;;;;;;21.63;2.97;;;;;;;11.24;100.00;98983.53;5208363;28;20397;-72
2023/11/14 00:12:14;;;;;;;21.33;3.22;;;;;;;11.20;100.00;98981.19;5211970;28;20037;-72
2023/11/14 00:14:45;;;;;;;25.73;3.08;;;;;;;11.22;100.00;98982.78;5207975;28;20437;-71
2023/11/14 00:17:15;;;;;;;14.20;2.47;;;;;;;11.32;100.00;98983.03;5207287;28;20033;-72
2023/11/14 00:19:46;;;;;;;17.23;2.63;;;;;;;11.33;100.00;98985.56;5207783;28;20492;-72
2023/11/14 00:22:16;;;;;;;12.68;2.45;;;;;;;11.31;100.00;98978.75;5208222;28;20467;-72
2023/11/14 00:24:47;;;;;;;21.63;3.45;;;;;;;11.30;100.00;98992.78;5207698;28;20039;-72
2023/11/14 00:27:18;;;;;;;15.57;2.20;;;;;;;11.33;100.00;98995.19;5208511;28;20036;-72
2023/11/14 00:29:48;;;;;;;20.70;2.67;;;;;;;11.21;100.00;98990.72;5207120;28;20043;-72
2023/11/14 00:32:18;;;;;;;21.23;3.13;;;;;;;11.18;100.00;98999.63;5208894;28;20379;-72
2023/11/14 00:34:49;;;;;;;20.60;3.10;;;;;;;11.17;100.00;98995.34;5208916;28;20078;-72
2023/11/14 00:37:20;;;;;;;17.38;2.97;;;;;;;11.11;100.00;98995.69;5210477;28;20044;-72
2023/11/14 00:39:51;;;;;;;16.95;3.00;;;;;;;11.13;100.00;98996.44;5195739;28;20051;-71
2023/11/14 00:42:21;;;;;;;17.85;3.33;;;;;;;11.12;100.00;98991.31;5212267;28;20035;-73
2023/11/14 00:44:51;;;;;;;21.67;3.85;;;;;;;11.06;100.00;99000.38;5192052;28;20037;-72
2023/11/14 00:47:22;;;;;;;19.90;2.55;;;;;;;11.08;100.00;98985.44;5207140;28;20240;-72
2023/11/14 00:49:52;;;;;;;14.65;2.72;;;;;;;11.22;100.00;98982.78;5203710;28;20064;-71
2023/11/14 00:52:22;;;;;;;20.13;3.28;;;;;;;11.20;100.00;98984.66;5206017;28;20497;-72
2023/11/14 00:54:53;;;;;;;20.25;2.60;;;;;;;11.15;100.00;98981.53;5206901;28;20115;-72
2023/11/14 00:57:23;;;;;;;19.13;2.80;;;;;;;11.13;100.00;98978.13;5208991;28;20024;-71
2023/11/14 00:59:53;;;;;;;13.48;2.30;;;;;;;11.12;100.00;98979.06;5206689;28;20495;-71
2023/11/14 01:02:24;;;;;;;25.30;3.13;;;;;;;11.09;100.00;98981.88;5208434;28;20029;-71
2023/11/14 01:04:54;;;;;;;22.80;3.03;;;;;;;11.11;100.00;98971.34;5210974;28;20049;-72
2023/11/14 01:07:24;;;;;;;26.67;3.35;;;;;;;11.11;100.00;98976.56;5208289;28;20029;-70
2023/11/14 01:09:55;;;;;;;17.42;2.97;;;;;;;11.10;100.00;98977.50;5206437;28;20400;-71
2023/11/14 01:12:25;;;;;;;18.83;2.72;;;;;;;11.12;100.00;98975.63;5211770;28;20513;-72
2023/11/14 01:14:56;;;;;;;25.23;2.97;;;;;;;11.19;100.00;98977.75;5207808;28;20028;-72
2023/11/14 01:17:26;;;;;;;15.95;2.45;;;;;;;11.22;100.00;98972.34;5208624;28;20032;-71
2023/11/14 01:19:57;;;;;;;20.23;2.70;;;;;;;11.25;100.00;98973.94;5207194;28;20033;-71
2023/11/14 01:22:27;;;;;;;22.90;3.22;;;;;;;11.30;100.00;98967.44;5205697;28;20025;-71
2023/11/14 01:24:57;;;;;;;16.00;2.42;;;;;;;11.36;100.00;98963.59;5197371;28;20120;-72
2023/11/14 01:27:27;;;;;;;15.30;2.50;;;;;;;11.33;100.00;98956.81;5205161;28;20095;-72
2023/11/14 01:29:58;;;;;;;14.27;2.60;;;;;;;11.36;100.00;98969.69;5208985;28;20049;-72
2023/11/14 01:32:28;;;;;;;13.75;3.08;;;;;;;11.41;100.00;98967.59;5211151;28;20028;-71
2023/11/14 01:34:58;;;;;;;18.70;2.85;;;;;;;11.45;100.00;98963.84;5205626;28;20121;-72
2023/11/14 01:37:29;;;;;;;19.30;2.78;;;;;;;11.49;100.00;98964.50;5211211;28;20039;-71
2023/11/14 01:39:59;;;;;;;18.75;2.58;;;;;;;11.53;100.00;98969.44;5211856;28;20021;-72
2023/11/14 01:45:09;;;;;;;19.80;2.42;;;;;;;11.62;100.00;98963.63;5498748;22;20090;-74
2023/11/14 01:47:39;;;;;;;13.27;2.78;;;;;;;11.63;100.00;98967.91;5205660;28;20047;-72
2023/11/14 01:50:09;;;;;;;17.45;3.35;;;;;;;11.66;100.00;98962.50;5191967;28;20021;-74
2023/11/14 01:52:40;;;;;;;20.77;3.45;;;;;;;11.62;100.00;98949.72;5206644;28;20025;-72
2023/11/14 01:55:11;;;;;;;20.45;3.55;;;;;;;11.59;100.00;98945.50;5207089;28;20052;-73
2023/11/14 01:57:42;;;;;;;17.48;3.00;;;;;;;11.62;100.00;98950.53;5209448;28;20040;-71
2023/11/14 02:00:14;;;;;;;15.05;2.85;;;;;;;11.64;100.00;98945.22;5191889;28;20018;-73
2023/11/14 02:02:45;;;;;;;17.02;2.50;;;;;;;11.60;100.00;98939.34;5193624;28;20032;-73
2023/11/14 02:05:17;;;;;;;16.10;2.78;;;;;;;11.67;100.00;98945.88;5208541;28;20025;-73
2023/11/14 02:07:48;;;;;;;20.38;2.63;;;;;;;11.81;99.74;98951.00;5204999;28;20028;-73
2023/11/14 02:10:18;;;;;;;21.23;2.88;;;;;;;11.79;99.63;98950.25;5207060;28;20017;-73
2023/11/14 02:12:50;;;;;;;17.90;2.33;;;;;;;11.79;100.00;98942.41;5205051;28;20576;-73
2023/11/14 02:15:21;;;;;;;19.90;2.47;;;;;;;11.87;98.79;98937.53;5208145;28;20037;-74
2023/11/14 02:17:51;;;;;;;13.73;2.15;;;;;;;11.87;98.21;98945.38;5207973;28;20206;-73
2023/11/14 02:20:22;;;;;;;16.08;2.78;;;;;;;11.92;98.84;98938.03;5207818;28;20021;-74
2023/11/14 02:22:53;;;;;;;19.13;2.92;;;;;;;11.97;98.18;98943.81;5207511;28;20022;-73
2023/11/14 02:25:24;;;;;;;15.68;2.15;;;;;;;12.02;98.45;98949.59;5207406;28;20529;-70
2023/11/14 02:27:54;;;;;;;15.30;2.83;;;;;;;11.99;98.49;98955.00;5204755;28;20025;-74
2023/11/14 02:30:24;;;;;;;16.55;3.05;;;;;;;11.97;99.32;98951.66;5207736;28;20116;-71
2023/11/14 02:32:55;;;;;;;18.60;2.80;;;;;;;11.93;99.06;98960.66;5210198;28;20017;-73
2023/11/14 02:35:25;;;;;;;17.40;2.47;;;;;;;11.93;100.00;98962.47;5208151;28;20028;-72
2023/11/14 02:37:57;;;;;;;21.17;3.30;;;;;;;12.03;98.90;98971.34;5205385;28;20040;-73
2023/11/14 02:40:27;;;;;;;12.30;2.30;;;;;;;12.03;98.63;98959.13;5207626;28;20021;-73
2023/11/14 02:42:58;;;;;;;14.07;2.78;;;;;;;11.99;99.24;98970.72;5204956;28;20040;-73
2023/11/14 02:45:29;;;;;;;22.75;3.47;;;;;;;12.09;98.66;98965.72;5210132;28;20028;-73
2023/11/14 02:48:01;;;;;;;15.98;2.35;;;;;;;12.02;98.66;98978.38;5205016;28;20124;-73
2023/11/14 02:50:49;;;;;;;22.60;2.40;;;;;;;12.01;98.99;98984.56;5191625;28;20017;-73
2023/11/14 02:53:20;;;;;;;15.55;2.50;;;;;;;12.05;98.10;98988.66;5206620;28;20021;-73
2023/11/14 02:55:52;;;;;;;22.25;2.70;;;;;;;12.12;97.82;98982.06;5205761;28;20402;-73
2023/11/14 02:58:22;;;;;;;14.60;2.75;;;;;;;12.10;98.39;98970.03;5192596;28;20033;-73
2023/11/14 03:00:52;;;;;;;20.55;2.83;;;;;;;12.08;98.12;98966.66;5204402;28;20025;-73
2023/11/14 03:03:23;;;;;;;15.90;2.55;;;;;;;12.05;98.33;98970.31;5209954;28;20108;-73
2023/11/14 03:05:53;;;;;;;19.80;2.92;;;;;;;12.00;99.23;98975.03;5210246;28;20049;-73
2023/11/14 03:08:23;;;;;;;18.20;3.42;;;;;;;11.95;98.88;98961.41;5208094;28;20067;-70
2023/11/14 03:10:55;;;;;;;14.73;2.65;;;;;;;12.05;98.51;98967.72;5204854;28;20087;-73
2023/11/14 03:13:25;;;;;;;22.98;2.95;;;;;;;12.05;97.77;98959.84;5207490;28;20402;-72
2023/11/14 03:15:56;;;;;;;19.52;2.30;;;;;;;12.08;97.67;98958.78;5202948;28;20055;-74
2023/11/14 03:18:26;;;;;;;23.80;2.88;;;;;;;12.12;96.90;98962.91;5191744;28;20025;-73
2023/11/14 03:20:57;;;;;;;18.75;2.30;;;;;;;12.13;96.70;98969.81;5207465;28;20043;-73
2023/11/14 03:23:27;;;;;;;20.48;2.42;;;;;;;12.19;96.15;98970.25;5211919;28;20040;-73
2023/11/14 03:25:57;;;;;;;14.00;2.15;;;;;;;12.18;96.19;98971.19;5208121;28;20220;-73
2023/11/14 03:28:28;;;;;;;24.52;3.90;;;;;;;12.17;96.00;98969.50;5195952;28;20023;-73
2023/11/14 03:30:59;;;;;;;23.33;2.45;;;;;;;12.15;95.86;98976.59;5209159;28;20163;-73
2023/11/14 03:33:29;;;;;;;20.45;2.33;;;;;;;12.12;96.16;98979.44;5212840;28;20533;-70
2023/11/14 03:35:59;;;;;;;21.15;2.72;;;;;;;12.11;96.46;98993.47;5211870;28;20112;-74
2023/11/14 03:38:29;;;;;;;17.05;3.00;;;;;;;12.22;96.27;98984.88;5196030;28;20381;-73
2023/11/14 03:41:00;;;;;;;14.13;2.45;;;;;;;12.18;95.76;98986.03;5208080;28;20100;-71
2023/11/14 03:43:30;;;;;;;11.82;2.55;;;;;;;12.22;95.23;98985.75;5213324;28;20032;-73
2023/11/14 03:46:01;;;;;;;19.00;2.72;;;;;;;12.20;95.78;98978.91;5207533;28;20029;-71
2023/11/14 03:48:31;;;;;;;18.33;2.28;;;;;;;12.18;95.58;98976.41;5207878;28;20490;-73
2023/11/14 03:51:03;;;;;;;21.42;3.10;;;;;;;12.20;95.37;98974.53;5208367;28;20029;-73
2023/11/14 03:53:34;;;;;;;15.93;2.83;;;;;;;12.32;95.29;98991.19;5195428;28;20032;-73
2023/11/14 03:56:04;;;;;;;16.90;2.30;;;;;;;12.18;95.87;98984.28;5210823;28;20032;-73
2023/11/14 03:58:39;;;;;;;19.73;2.65;;;;;;;12.27;95.38;98983.66;5207638;28;20111;-73
2023/11/14 04:01:09;;;;;;;15.30;2.35;;;;;;;12.25;95.79;98997.78;5207946;28;20017;-73
2023/11/14 04:03:39;;;;;;;22.38;2.75;;;;;;;12.22;95.75;98996.22;5195382;28;20036;-73
2023/11/14 04:06:10;;;;;;;23.30;2.92;;;;;;;12.31;95.95;99000.00;5213868;28;20501;-73
2023/11/14 04:08:41;;;;;;;20.55;2.40;;;;;;;12.29;95.53;98992.22;5214636;28;20412;-73
2023/11/14 04:11:12;;;;;;;23.42;3.58;;;;;;;12.30;94.75;98983.44;5213010;28;20028;-73
2023/11/14 04:13:43;;;;;;;17.80;2.88;;;;;;;12.29;94.46;98987.00;5197859;28;20016;-73
2023/11/14 04:16:13;;;;;;;19.10;2.20;;;;;;;12.32;95.30;98999.06;5199569;28;20028;-73
2023/11/14 04:18:43;;;;;;;19.70;2.38;;;;;;;12.32;94.76;98999.06;5212673;28;20041;-73
2023/11/14 04:21:19;;;;;;;19.48;2.75;;;;;;;12.42;94.06;99008.81;5211797;28;20060;-74
2023/11/14 04:23:49;;;;;;;17.40;2.85;;;;;;;12.39;94.54;98995.06;5211557;28;20030;-72
2023/11/14 04:26:20;;;;;;;18.40;2.60;;;;;;;12.33;94.45;99012.03;5209530;28;20055;-73
2023/11/14 04:28:50;;;;;;;16.88;2.47;;;;;;;12.34;94.35;99010.25;5211014;28;20395;-73
2023/11/14 04:31:20;;;;;;;13.07;1.83;;;;;;;12.25;95.48;99016.09;5213486;28;20096;-73
2023/11/14 04:33:50;;;;;;;12.45;2.45;;;;;;;12.25;95.52;99013.50;5209950;28;20029;-73
2023/11/14 04:36:21;;;;;;;17.55;2.92;;;;;;;12.30;94.16;98999.16;5206041;28;20387;-73
2023/11/14 04:38:51;;;;;;;16.80;2.28;;;;;;;12.27;94.48;99017.69;5211475;28;20028;-73
2023/11/14 04:41:22;;;;;;;20.35;2.28;;;;;;;12.33;93.38;99005.97;5212963;28;20105;-73
2023/11/14 04:43:52;;;;;;;16.67;2.10;;;;;;;12.33;94.55;99012.03;5210026;28;20434;-73
2023/11/14 04:46:23;;;;;;;11.10;2.30;;;;;;;12.34;95.04;99016.34;5212982;28;20368;-74
2023/11/14 04:48:54;;;;;;;14.55;1.85;;;;;;;12.33;94.49;99017.28;5209636;28;20083;-73
2023/11/14 04:51:24;;;;;;;13.15;2.05;;;;;;;12.31;94.21;99010.47;5212613;28;20029;-70
2023/11/14 04:53:54;;;;;;;16.30;2.00;;;;;;;12.35;94.98;99010.19;5210848;28;20025;-73
2023/11/14 04:56:25;;;;;;;18.13;2.33;;;;;;;12.30;96.37;99007.00;5212210;28;20024;-70
2023/11/14 04:58:56;;;;;;;16.52;2.47;;;;;;;12.25;96.30;98998.63;5211894;28;20025;-72
2023/11/14 05:01:26;;;;;;;16.40;2.60;;;;;;;12.27;96.49;99006.41;5210351;28;20063;-72
2023/11/14 05:03:56;;;;;;;14.45;2.05;;;;;;;12.28;96.63;99002.81;5210172;28;20110;-73
2023/11/14 05:06:30;;;;;;;17.40;2.67;;;;;;;12.23;95.96;98997.91;5212356;28;20177;-72
2023/11/14 05:09:00;;;;;;;13.63;2.25;;;;;;;12.24;96.07;98996.09;5209397;28;20086;-72
2023/11/14 05:11:35;;;;;;;13.38;2.17;;;;;;;12.22;95.76;99004.06;5182874;28;20112;-73
2023/11/14 05:14:06;;;;;;;11.77;2.03;;;;;;;12.21;96.19;99006.78;5192880;28;20029;-73
2023/11/14 05:16:38;;;;;;;21.02;2.15;;;;;;;12.20;96.22;98995.50;5212269;28;20025;-74
2023/11/14 05:19:09;;;;;;;14.60;2.40;;;;;;;12.19;96.62;98993.81;5194869;28;20487;-73
2023/11/14 05:21:40;;;;;;;14.82;2.25;;;;;;;12.22;95.93;99006.69;5211452;28;20033;-74
2023/11/14 05:24:10;;;;;;;18.30;2.42;;;;;;;12.23;95.62;99010.13;5210894;28;20029;-73
2023/11/14 05:26:40;;;;;;;12.57;2.00;;;;;;;12.30;95.73;99000.94;5211244;28;20548;-74
2023/11/14 05:29:11;;;;;;;15.32;2.80;;;;;;;12.34;95.13;99005.88;5211558;28;20037;-73
2023/11/14 05:31:41;;;;;;;16.63;2.40;;;;;;;12.37;95.59;98997.81;5209243;28;20040;-73
2023/11/14 05:34:11;;;;;;;13.50;2.10;;;;;;;12.31;95.66;99003.44;5193481;28;20025;-73
2023/11/14 05:36:42;;;;;;;16.20;2.50;;;;;;;12.28;97.00;98987.13;5210353;28;20033;-72
2023/11/14 05:39:12;;;;;;;16.77;2.38;;;;;;;12.37;95.82;99012.66;5195985;28;20405;-71
2023/11/14 05:41:43;;;;;;;14.40;2.25;;;;;;;12.33;95.57;99012.03;5207966;28;20122;-74
2023/11/14 05:44:14;;;;;;;16.13;2.53;;;;;;;12.38;95.48;99004.72;5211708;28;20056;-73
2023/11/14 05:46:45;;;;;;;16.08;2.40;;;;;;;12.44;94.85;99014.78;5210798;28;20038;-73
2023/11/14 05:49:15;;;;;;;17.92;2.38;;;;;;;12.45;95.65;99003.34;5211494;28;20053;-72
2023/11/14 05:51:45;;;;;;;17.02;2.72;;;;;;;12.41;96.41;98999.28;5208726;28;20021;-71
2023/11/14 05:54:16;;;;;;;20.85;2.72;;;;;;;12.37;97.75;99004.81;5210423;28;20059;-73
2023/11/14 05:56:46;;;;;;;15.63;2.30;;;;;;;12.31;99.27;99006.06;5211905;28;20013;-73
2023/11/14 05:59:17;;;;;;;17.38;2.60;;;;;;;12.22;100.00;98993.59;5192280;28;20040;-71
2023/11/14 06:01:47;;;;;;;15.65;2.60;;;;;;;12.17;100.00;99000.94;5192761;28;20026;-73
2023/11/14 06:04:17;;;;;;;21.63;2.67;;;;;;;12.10;100.00;98996.22;5207254;28;20529;-73
2023/11/14 06:06:49;;;;;;;18.20;2.13;;;;;;;12.01;100.00;98991.56;5207014;28;20626;-74
2023/11/14 06:09:20;;;;;;;17.52;2.17;;;;;;;12.09;100.00;98997.97;5191016;28;20128;-73
2023/11/14 06:11:50;;;;;;;17.80;2.15;;;;;;;12.13;100.00;98996.00;5209606;28;20029;-70
2023/11/14 06:14:20;;;;;;;17.90;2.63;;;;;;;12.13;100.00;98999.44;5206205;28;20021;-73
2023/11/14 06:16:50;;;;;;;16.80;2.47;;;;;;;12.05;100.00;99001.75;5204637;28;20422;-73
2023/11/14 06:19:21;;;;;;;24.00;3.00;;;;;;;12.09;100.00;99007.63;5209519;28;20348;-69
2023/11/14 06:21:51;;;;;;;19.98;2.20;;;;;;;11.99;100.00;99002.13;5204067;28;20028;-71
2023/11/14 06:24:21;;;;;;;18.83;2.38;;;;;;;12.03;100.00;99011.47;5212853;28;20036;-74
2023/11/14 06:26:52;;;;;;;18.77;2.67;;;;;;;12.09;100.00;99023.34;5208518;28;20061;-73
2023/11/14 06:29:22;;;;;;;17.60;2.90;;;;;;;12.11;100.00;99018.84;5201547;28;20150;-73
2023/11/14 06:31:52;;;;;;;20.38;2.97;;;;;;;12.05;100.00;99020.06;5211523;28;20036;-74
2023/11/14 06:34:22;;;;;;;20.90;2.42;;;;;;;12.11;100.00;99034.53;5212029;28;20437;-73
2023/11/14 06:36:53;;;;;;;15.77;2.15;;;;;;;12.11;100.00;99019.66;5209372;28;20025;-73
2023/11/14 06:39:24;;;;;;;18.23;2.60;;;;;;;12.15;100.00;99023.75;5207969;28;20064;-73
2023/11/14 06:41:54;;;;;;;18.48;2.47;;;;;;;12.18;99.76;99036.66;5200895;28;20465;-73
2023/11/14 06:44:24;;;;;;;17.75;2.35;;;;;;;12.20;98.52;99026.91;5205917;28;20021;-70
2023/11/14 06:46:55;;;;;;;15.05;2.53;;;;;;;12.24;97.99;99027.53;5210252;28;20513;-72
2023/11/14 06:49:25;;;;;;;13.60;2.22;;;;;;;12.26;97.07;99029.13;5208335;28;20025;-71
2023/11/14 06:51:55;;;;;;;15.98;2.38;;;;;;;12.27;97.24;99029.97;5195415;28;20070;-72
2023/11/14 06:54:25;;;;;;;16.75;2.28;;;;;;;12.33;96.48;99040.84;5211237;28;20115;-73
2023/11/14 06:56:56;;;;;;;14.10;2.05;;;;;;;12.34;96.44;99047.78;5211485;28;20289;-69
2023/11/14 06:59:30;;;;;;;10.48;2.40;;;;;;;12.39;96.41;99056.19;5193703;28;20086;-70
2023/11/14 07:02:05;;;;;;;12.95;1.83;;;;;;;12.43;95.94;99056.81;5213815;28;20431;-73
2023/11/14 07:04:37;;;;;;;16.33;2.45;;;;;;;12.43;95.34;99056.81;5209208;28;20027;-73
2023/11/14 07:07:07;;;;;;;14.70;2.25;;;;;;;12.37;95.77;99062.44;5214240;28;20044;-74
2023/11/14 07:09:37;;;;;;;15.73;2.10;;;;;;;12.47;94.72;99069.59;5213517;28;20398;-74
2023/11/14 07:12:10;;;;;;;14.38;1.98;;;;;;;12.43;94.39;99062.88;5196440;28;20478;-74
2023/11/14 07:14:40;;;;;;;13.98;1.85;;;;;;;12.40;95.02;99064.84;5211912;28;20025;-74
2023/11/14 07:17:10;;;;;;;10.93;1.45;;;;;;;12.42;95.51;99069.06;5209452;28;20546;-73
2023/11/14 07:19:41;;;;;;;12.93;2.05;;;;;;;12.45;94.71;99071.47;5204005;28;20028;-73
2023/11/14 07:22:12;;;;;;;18.73;2.45;;;;;;;12.38;95.83;99072.84;5205043;28;20064;-73
2023/11/14 07:24:43;;;;;;;12.35;2.03;;;;;;;12.39;94.77;99074.50;5211723;28;20487;-74
2023/11/14 07:27:15;;;;;;;16.30;2.20;;;;;;;12.46;94.17;99085.44;5213165;28;20035;-73
2023/11/14 07:29:46;;;;;;;14.77;2.20;;;;;;;12.43;94.01;99075.97;5196094;28;20460;-73
2023/11/14 07:32:16;;;;;;;11.63;2.25;;;;;;;12.47;94.42;99082.69;5214672;28;20033;-73
2023/11/14 07:34:46;;;;;;;12.07;1.77;;;;;;;12.51;94.47;99078.94;5208878;28;20037;-73
2023/11/14 07:37:17;;;;;;;13.25;2.20;;;;;;;12.47;94.42;99090.53;5196624;28;20432;-70
2023/11/14 07:39:47;;;;;;;10.02;1.55;;;;;;;12.47;95.37;99087.09;5212831;28;20059;-73
2023/11/14 07:42:17;;;;;;;15.70;2.67;;;;;;;12.45;94.75;99081.13;5214305;28;20029;-74
2023/11/14 07:44:48;;;;;;;12.82;2.05;;;;;;;12.45;94.89;99084.56;5215094;28;20026;-74
2023/11/14 07:47:18;;;;;;;9.93;1.83;;;;;;;12.38;95.32;99078.06;5214328;28;20082;-73
2023/11/14 07:49:50;;;;;;;13.95;1.98;;;;;;;12.39;96.48;99085.00;5213252;28;20022;-73
2023/11/14 07:52:20;;;;;;;14.30;2.30;;;;;;;12.40;95.87;99077.94;5213944;28;20053;-73
2023/11/14 07:54:53;;;;;;;16.52;2.10;;;;;;;12.46;95.51;99075.75;5214381;28;20049;-73
2023/11/14 07:57:24;;;;;;;8.95;1.42;;;;;;;12.50;95.40;99087.72;5196790;28;20379;-73
2023/11/14 07:59:55;;;;;;;15.23;1.92;;;;;;;12.82;94.43;99083.75;5215039;28;20083;-73
2023/11/14 08:02:25;;;;;;;9.98;2.22;;;;;;;13.59;90.98;99082.63;5213363;28;20021;-73
2023/11/14 08:04:56;;;;;;;12.55;2.13;;;;;;;14.45;86.29;99079.72;5214744;28;20086;-74
2023/11/14 08:07:26;;;;;;;10.93;1.80;;;;;;;14.60;86.51;99088.28;5215262;28;20525;-74
2023/11/14 08:09:56;;;;;;;10.23;2.20;;;;;;;15.13;82.94;99088.47;5218486;28;20029;-73
2023/11/14 08:12:27;;;;;;;13.27;1.95;;;;;;;15.46;80.86;99086.72;5214462;28;20028;-71
2023/11/14 08:14:57;;;;;;;14.05;2.50;;;;;;;15.25;82.39;99087.53;5214252;28;20032;-73
2023/11/14 08:17:28;;;;;;;16.60;2.38;;;;;;;14.78;82.62;99100.84;5195507;28;20029;-71
2023/11/14 08:19:59;;;;;;;14.70;2.47;;;;;;;14.31;86.09;99108.00;5215904;28;20111;-73
2023/11/14 08:22:29;;;;;;;12.48;2.17;;;;;;;14.00;86.36;99093.63;5210598;28;20112;-74
2023/11/14 08:25:00;;;;;;;16.13;2.40;;;;;;;13.62;89.31;99110.47;5219614;28;20036;-73
2023/11/14 08:27:31;;;;;;;16.33;2.65;;;;;;;13.73;89.32;99105.28;5216074;28;20060;-74
2023/11/14 08:30:04;;;;;;;8.88;2.00;;;;;;;14.07;87.88;99094.03;5201296;28;20530;-73
2023/11/14 08:32:35;;;;;;;15.45;2.90;;;;;;;13.95;88.48;99100.16;5209537;28;20447;-74
2023/11/14 08:35:07;;;;;;;17.23;2.90;;;;;;;13.77;88.47;99112.00;5214289;28;20064;-74
2023/11/14 08:37:37;;;;;;;10.25;2.17;;;;;;;13.49;89.84;99112.28;5212209;28;20033;-73
2023/11/14 08:40:12;;;;;;;16.35;2.33;;;;;;;13.37;90.13;99105.28;5211270;28;20032;-74
2023/11/14 08:42:43;;;;;;;10.15;1.90;;;;;;;13.39;90.35;99109.44;5212649;28;20032;-74
2023/11/14 08:45:13;;;;;;;17.63;2.10;;;;;;;13.25;91.21;99095.63;5213618;28;20033;-73
2023/11/14 08:47:44;;;;;;;17.33;2.40;;;;;;;13.30;90.46;99097.00;5210025;28;20552;-73
2023/11/14 08:50:16;;;;;;;12.10;2.70;;;;;;;13.59;89.41;99090.50;5213109;28;20067;-74
2023/11/14 08:52:46;;;;;;;16.63;2.50;;;;;;;13.86;88.47;99095.56;5209947;28;20479;-74
2023/11/14 08:55:17;;;;;;;15.98;2.80;;;;;;;13.77;88.17;99106.75;5210441;28;20083;-74
2023/11/14 08:57:47;;;;;;;16.02;3.28;;;;;;;13.80;88.67;99096.00;5211048;28;20033;-74
2023/11/14 09:00:18;;;;;;;14.88;2.50;;;;;;;13.80;88.76;99106.53;5210224;28;20161;-73
2023/11/14 09:02:49;;;;;;;18.52;3.00;;;;;;;13.67;89.22;99106.56;5213158;28;20032;-74
2023/11/14 09:05:20;;;;;;;12.65;2.45;;;;;;;13.60;89.12;99123.69;5210466;28;20036;-73
2023/11/14 09:07:51;;;;;;;14.63;2.10;;;;;;;13.56;89.24;99118.78;5211576;28;20136;-74
2023/11/14 09:10:22;;;;;;;12.60;2.47;;;;;;;13.50;89.57;99124.44;5210328;28;20034;-73
2023/11/14 09:12:52;;;;;;;14.77;2.17;;;;;;;13.42;90.21;99124.97;5213051;28;20044;-74
2023/11/14 09:15:23;;;;;;;15.75;2.58;;;;;;;13.34;91.28;99114.19;5194827;28;20024;-73
2023/11/14 09:17:53;;;;;;;14.23;2.45;;;;;;;13.34;90.86;99134.34;5210931;28;20025;-73
2023/11/14 09:20:25;;;;;;;17.45;2.38;;;;;;;13.18;92.03;99136.34;5211820;28;20035;-74
2023/11/14 09:22:56;;;;;;;12.10;2.20;;;;;;;13.13;92.70;99130.56;5211606;28;20025;-73
2023/11/14 09:25:27;;;;;;;13.85;2.35;;;;;;;13.23;93.02;99129.00;5205658;28;20037;-73
2023/11/14 09:27:58;;;;;;;13.88;2.53;;;;;;;13.19;93.11;99125.75;5198792;28;20028;-73
2023/11/14 09:30:28;;;;;;;18.95;2.50;;;;;;;13.18;92.83;99129.31;5206769;28;20014;-71
2023/11/14 09:32:59;;;;;;;14.68;2.60;;;;;;;13.16;92.51;99132.97;5215141;28;20043;-73
2023/11/14 09:35:29;;;;;;;13.77;2.20;;;;;;;13.17;92.67;99142.53;5195786;28;20148;-73
2023/11/14 09:37:59;;;;;;;13.93;2.25;;;;;;;13.15;92.56;99150.53;5213241;28;20032;-73
2023/11/14 09:40:29;;;;;;;10.57;2.28;;;;;;;13.20;91.64;99131.84;5193039;28;20095;-73
2023/11/14 09:43:00;;;;;;;17.45;2.78;;;;;;;13.24;92.19;99159.56;5213116;28;20439;-72
2023/11/14 09:45:31;;;;;;;21.92;2.58;;;;;;;13.13;93.07;99148.94;5211630;28;20026;-74
2023/11/14 09:48:08;;;;;;;12.65;2.10;;;;;;;13.31;93.09;99150.28;5212589;28;20033;-73
2023/11/14 09:50:41;;;;;;;12.70;2.47;;;;;;;13.35;92.98;99149.97;5207129;28;20517;-73
2023/11/14 09:53:12;;;;;;;14.68;2.50;;;;;;;13.36;93.34;99150.81;5194882;28;20457;-73
2023/11/14 09:55:44;;;;;;;17.23;3.05;;;;;;;13.34;93.85;99165.81;5210298;28;20032;-74
2023/11/14 09:58:14;;;;;;;15.98;2.22;;;;;;;13.31;94.26;99156.41;5211799;28;20115;-73
2023/11/14 10:00:46;;;;;;;18.20;2.60;;;;;;;13.23;94.17;99156.06;5197921;28;20112;-72
2023/11/14 10:03:17;;;;;;;17.48;2.83;;;;;;;13.18;94.78;99168.66;5194976;28;20036;-73
2023/11/14 10:05:48;;;;;;;15.20;3.25;;;;;;;13.10;95.81;99170.13;5195333;28;20493;-73
2023/11/14 10:08:19;;;;;;;13.35;2.40;;;;;;;13.26;95.11;99173.41;5210800;28;20029;-73
2023/11/14 10:11:09;;;;;;;16.55;2.95;;;;;;;13.51;94.63;99162.88;5196109;28;20025;-73
2023/11/14 10:13:40;;;;;;;16.52;2.45;;;;;;;13.58;94.12;99166.75;5190501;28;20025;-73
2023/11/14 10:16:13;;;;;;;17.38;3.05;;;;;;;13.38;94.68;99167.31;5210156;28;20036;-73
2023/11/14 10:18:45;;;;;;;12.13;2.60;;;;;;;13.37;94.57;99166.47;5211350;28;20300;-74
2023/11/14 10:21:29;;;;;;;17.83;2.72;;;;;;;13.37;93.98;99173.50;5213635;28;20291;-74
2023/11/14 10:24:00;;;;;;;14.95;2.40;;;;;;;13.29;94.64;99166.16;5214696;28;20032;-73
2023/11/14 10:26:31;;;;;;;14.77;2.60;;;;;;;13.40;94.69;99165.41;5213027;28;20033;-73
2023/11/14 10:29:02;;;;;;;14.65;2.40;;;;;;;13.31;93.52;99176.53;5213140;28;20044;-73
2023/11/14 10:31:37;;;;;;;16.92;3.30;;;;;;;13.29;94.20;99173.19;5209097;28;20026;-73
2023/11/14 10:34:26;;;;;;;16.75;3.17;;;;;;;13.40;93.12;99175.91;5214415;28;20167;-73
2023/11/14 10:36:58;;;;;;;14.18;2.42;;;;;;;13.39;93.62;99158.50;5212330;28;20024;-73
2023/11/14 10:39:29;;;;;;;16.50;2.75;;;;;;;13.44;94.02;99161.63;5191662;28;20397;-73
2023/11/14 10:42:10;;;;;;;16.05;2.80;;;;;;;13.56;94.05;99166.03;5211602;28;20028;-74
2023/11/14 10:44:56;;;;;;;17.08;2.65;;;;;;;13.80;93.29;99164.28;5208184;28;20049;-73
2023/11/14 10:47:39;;;;;;;;;;;;;;;14.08;92.82;99149.06;5212368;28;20024;-73
2023/11/14 10:50:30;;;;;;;12.13;2.28;;;;;;;14.16;91.40;99166.94;5211766;28;19919;-69
2023/11/14 10:53:00;;;;;;;13.80;2.80;;;;;;;14.14;91.32;99147.78;5213462;28;20037;-72
2023/11/14 10:55:32;;;;;;;18.15;2.85;;;;;;;14.09;91.37;99157.81;5207978;28;20028;-73
2023/11/14 10:58:02;;;;;;;12.95;3.00;;;;;;;13.92;91.93;99142.41;5207325;28;20032;-74
2023/11/14 11:00:34;;;;;;;19.02;3.00;;;;;;;14.01;92.48;99137.34;5211513;28;20036;-73
2023/11/14 11:03:05;;;;;;;15.50;2.40;;;;;;;14.07;92.22;99141.31;5214344;28;20116;-74
2023/11/14 11:05:37;;;;;;;18.33;2.97;;;;;;;14.06;91.31;99147.53;5209419;28;20056;-74
2023/11/14 11:08:08;;;;;;;13.00;2.88;;;;;;;14.07;91.15;99152.66;5215578;28;20356;-74
2023/11/14 11:10:39;;;;;;;19.90;2.83;;;;;;;13.96;91.16;99146.50;5210017;28;20025;-73
2023/11/14 11:13:14;;;;;;;18.42;2.28;;;;;;;13.82;91.59;99151.88;5210540;28;20441;-73
2023/11/14 11:15:54;;;;;;;14.50;2.53;;;;;;;13.87;90.59;99139.25;5210596;28;20071;-73
2023/11/14 11:18:35;;;;;;;16.85;2.75;;;;;;;13.89;91.81;99140.00;5209846;28;20287;-71
2023/11/14 11:21:10;;;;;;;15.57;2.88;;;;;;;13.95;91.71;99131.69;5203922;28;20029;-73
2023/11/14 11:24:02;;;;;;;16.80;2.73;;;;;;;13.95;90.78;99150.88;5190326;28;20025;-73
2023/11/14 11:27:11;;;;;;;17.85;2.80;;;;;;;13.94;91.23;99145.75;5194747;28;20021;-72
2023/11/14 11:29:50;;;;;;;14.63;2.38;;;;;;;13.83;90.70;99151.78;5209103;28;20605;-73
2023/11/14 11:32:28;;;;;;;20.65;2.65;;;;;;;13.98;90.73;99140.19;5211128;28;20163;-73
2023/11/14 11:35:18;;;;;;;18.27;2.85;;;;;;;14.35;88.92;99151.50;5212692;28;20124;-73
2023/11/14 11:37:52;;;;;;;18.42;2.58;;;;;;;14.51;88.31;99146.78;5212565;28;20386;-74
2023/11/14 11:40:28;;;;;;;14.15;2.50;;;;;;;14.44;88.13;99146.41;5211706;28;20063;-74
2023/11/14 11:43:17;;;;;;;14.63;2.88;;;;;;;14.40;88.76;99150.22;5218420;28;20502;-74
2023/11/14 11:45:49;;;;;;;15.00;2.40;;;;;;;14.22;89.07;99145.50;5214781;28;20021;-74
2023/11/14 11:48:34;;;;;;;9.13;2.08;;;;;;;14.19;89.64;99158.81;5216062;28;20225;-74